Time,TemperatureF,DewpointF,PressureIn,WindDirection,WindDirectionDegrees,WindSpeedMPH,WindSpeedGustMPH,Humidity,HourlyPrecipIn,Conditions,Clouds,dailyrainin,SolarRadiationWatts/m^2,SoftwareType,DateUTC
2013-03-30 00:02:00,51.0,38.0,-100.00,NW,309,3.0,4.0,61,0.00,,,-99.99,0.000000,,2013-03-30 04:02:00,
2013-03-30 00:33:00,50.0,39.0,-100.00,WSW,237,4.0,6.0,66,0.00,,,-99.99,0.000000,,2013-03-30 04:33:00,
2013-03-30 00:43:00,50.0,39.0,-100.00,WSW,237,4.0,6.0,66,0.00,,,-99.99,0.000000,,2013-03-30 04:43:00,
2013-03-30 00:53:00,50.0,39.0,-100.00,WSW,237,4.0,6.0,66,0.00,,,-99.99,0.000000,,2013-03-30 04:53:00,
2013-03-30 01:02:00,50.0,39.0,-100.00,WSW,237,4.0,6.0,66,0.00,,,-99.99,0.000000,,2013-03-30 05:02:00,
2013-03-30 01:32:00,50.0,39.0,-100.00,West,264,3.0,6.0,65,0.00,,,-99.99,0.000000,,2013-03-30 05:32:00,
2013-03-30 01:42:00,50.0,39.0,-100.00,West,264,3.0,6.0,65,0.00,,,-99.99,0.000000,,2013-03-30 05:42:00,
2013-03-30 01:52:00,50.0,39.0,-100.00,West,264,3.0,6.0,65,0.00,,,-99.99,0.000000,,2013-03-30 05:52:00,
2013-03-30 02:02:00,50.0,39.0,-100.00,West,264,3.0,6.0,65,0.00,,,-99.99,0.000000,,2013-03-30 06:02:00,
2013-03-30 02:32:00,49.0,39.0,-100.00,West,278,3.0,6.0,68,0.00,,,-99.99,0.000000,,2013-03-30 06:32:00,
2013-03-30 02:42:00,49.0,39.0,-100.00,West,278,3.0,6.0,68,0.00,,,-99.99,0.000000,,2013-03-30 06:42:00,
2013-03-30 02:52:00,49.0,39.0,-100.00,West,278,3.0,6.0,68,0.00,,,-99.99,0.000000,,2013-03-30 06:52:00,
2013-03-30 03:02:00,49.0,39.0,-100.00,West,278,3.0,6.0,68,0.00,,,-99.99,0.000000,,2013-03-30 07:02:00,
2013-03-30 04:32:00,48.0,41.0,-100.00,East,79,2.0,3.0,77,-99.99,,,-99.99,0.000000,,2013-03-30 08:32:00,
2013-03-30 04:42:00,48.0,41.0,-100.00,East,79,2.0,3.0,77,-99.99,,,-99.99,0.000000,,2013-03-30 08:42:00,
2013-03-30 04:53:00,48.0,41.0,-100.00,East,79,2.0,3.0,77,-99.99,,,-99.99,0.000000,,2013-03-30 08:53:00,
2013-03-30 05:02:00,48.0,41.0,-100.00,East,79,2.0,3.0,77,-99.99,,,-99.99,0.000000,,2013-03-30 09:02:00,
2013-03-30 06:33:00,48.0,42.0,-100.00,South,187,4.0,7.0,81,-99.99,,,-99.99,0.000000,,2013-03-30 10:33:00,
2013-03-30 06:42:00,48.0,42.0,-100.00,South,187,4.0,7.0,81,-99.99,,,-99.99,0.000000,,2013-03-30 10:42:00,
2013-03-30 06:53:00,48.0,42.0,-100.00,South,187,4.0,7.0,81,-99.99,,,-99.99,0.000000,,2013-03-30 10:53:00,
2013-03-30 07:04:00,48.0,42.0,-100.00,South,187,4.0,7.0,81,-99.99,,,-99.99,0.000000,,2013-03-30 11:04:00,
2013-03-30 07:33:00,47.0,42.0,-100.00,SSW,196,6.0,8.0,82,0.00,,,-99.99,0.000000,,2013-03-30 11:33:00,
2013-03-30 07:43:00,47.0,42.0,-100.00,SSW,196,6.0,8.0,82,0.00,,,-99.99,0.000000,,2013-03-30 11:43:00,
2013-03-30 07:53:00,47.0,42.0,-100.00,SSW,196,6.0,8.0,82,0.00,,,-99.99,0.000000,,2013-03-30 11:53:00,
2013-03-30 08:03:00,47.0,42.0,-100.00,SSW,196,6.0,8.0,82,0.00,,,-99.99,0.000000,,2013-03-30 12:03:00,
2013-03-30 08:33:00,49.0,44.0,-100.00,SW,226,2.0,10.0,83,0.00,,,-99.99,7.000000,,2013-03-30 12:33:00,
2013-03-30 08:43:00,49.0,44.0,-100.00,SW,226,2.0,10.0,83,0.00,,,-99.99,7.000000,,2013-03-30 12:43:00,
2013-03-30 08:53:00,49.0,44.0,-100.00,SW,226,2.0,10.0,83,0.00,,,-99.99,7.000000,,2013-03-30 12:53:00,
2013-03-30 09:02:00,49.0,44.0,-100.00,SW,226,2.0,10.0,83,0.00,,,-99.99,7.000000,,2013-03-30 13:02:00,
2013-03-30 09:32:00,51.0,45.0,-100.00,SSE,160,4.0,6.0,80,0.00,,,-99.99,61.000000,,2013-03-30 13:32:00,
2013-03-30 09:43:00,51.0,45.0,-100.00,SSE,160,4.0,6.0,80,0.00,,,-99.99,61.000000,,2013-03-30 13:43:00,
2013-03-30 09:53:00,51.0,45.0,-100.00,SSE,160,4.0,6.0,80,0.00,,,-99.99,61.000000,,2013-03-30 13:53:00,
2013-03-30 10:03:00,51.0,45.0,-100.00,SSE,160,4.0,6.0,80,0.00,,,-99.99,61.000000,,2013-03-30 14:03:00,
2013-03-30 10:33:00,54.0,46.0,-100.00,SSW,199,3.0,7.0,75,0.00,,,-99.99,118.000000,,2013-03-30 14:33:00,
2013-03-30 10:43:00,54.0,46.0,-100.00,SSW,199,3.0,7.0,75,0.00,,,-99.99,118.000000,,2013-03-30 14:43:00,
2013-03-30 10:53:00,54.0,46.0,-100.00,SSW,199,3.0,7.0,75,0.00,,,-99.99,118.000000,,2013-03-30 14:53:00,
2013-03-30 11:03:00,54.0,46.0,-100.00,SSW,199,3.0,7.0,75,0.00,,,-99.99,118.000000,,2013-03-30 15:03:00,
2013-03-30 11:34:00,62.0,48.0,-100.00,ENE,66,3.0,6.0,60,0.00,,,-99.99,500.000000,,2013-03-30 15:34:00,
2013-03-30 11:43:00,62.0,48.0,-100.00,ENE,66,3.0,6.0,60,0.00,,,-99.99,500.000000,,2013-03-30 15:43:00,
2013-03-30 11:53:00,62.0,48.0,-100.00,ENE,66,3.0,6.0,60,0.00,,,-99.99,500.000000,,2013-03-30 15:53:00,
2013-03-30 12:03:00,62.0,48.0,-100.00,ENE,66,3.0,6.0,60,0.00,,,-99.99,500.000000,,2013-03-30 16:03:00,
2013-03-30 12:33:00,66.0,46.0,-100.00,SSE,164,4.0,7.0,49,0.00,,,-99.99,809.000000,,2013-03-30 16:33:00,
2013-03-30 12:43:00,66.0,46.0,-100.00,SSE,164,4.0,7.0,49,0.00,,,-99.99,809.000000,,2013-03-30 16:43:00,
2013-03-30 12:53:00,66.0,46.0,-100.00,SSE,164,4.0,7.0,49,0.00,,,-99.99,809.000000,,2013-03-30 16:53:00,
2013-03-30 13:02:00,66.0,46.0,-100.00,SSE,164,4.0,7.0,49,0.00,,,-99.99,809.000000,,2013-03-30 17:02:00,
2013-03-30 13:33:00,70.0,45.0,-100.00,North,351,3.0,9.0,41,0.00,,,-99.99,917.000000,,2013-03-30 17:33:00,
2013-03-30 13:43:00,70.0,45.0,-100.00,North,351,3.0,9.0,41,0.00,,,-99.99,917.000000,,2013-03-30 17:43:00,
2013-03-30 13:53:00,70.0,45.0,-100.00,North,351,3.0,9.0,41,0.00,,,-99.99,917.000000,,2013-03-30 17:53:00,
2013-03-30 14:03:00,70.0,45.0,-100.00,North,351,3.0,9.0,41,0.00,,,-99.99,917.000000,,2013-03-30 18:03:00,
2013-03-30 14:33:00,72.0,46.0,-100.00,NE,38,5.0,14.0,39,0.00,,,-99.99,920.000000,,2013-03-30 18:33:00,
2013-03-30 14:43:00,72.0,46.0,-100.00,NE,38,5.0,14.0,39,0.00,,,-99.99,920.000000,,2013-03-30 18:43:00,
2013-03-30 14:53:00,72.0,46.0,-100.00,NE,38,5.0,14.0,39,0.00,,,-99.99,920.000000,,2013-03-30 18:53:00,
2013-03-30 15:03:00,72.0,46.0,-100.00,NE,38,5.0,14.0,39,0.00,,,-99.99,920.000000,,2013-03-30 19:03:00,
2013-03-30 16:33:00,72.0,44.0,-100.00,ENE,68,3.0,11.0,37,-99.99,,,0.00,540.000000,,2013-03-30 20:33:00,
2013-03-30 16:43:00,72.0,44.0,-100.00,ENE,68,3.0,11.0,37,-99.99,,,0.00,540.000000,,2013-03-30 20:43:00,
2013-03-30 16:53:00,72.0,44.0,-100.00,ENE,68,3.0,11.0,37,-99.99,,,0.00,540.000000,,2013-03-30 20:53:00,
2013-03-30 17:03:00,72.0,44.0,-100.00,ENE,68,3.0,11.0,37,-99.99,,,0.00,540.000000,,2013-03-30 21:03:00,
2013-03-30 17:34:00,74.0,45.0,-100.00,South,184,3.0,8.0,36,0.00,,,0.00,505.000000,,2013-03-30 21:34:00,
2013-03-30 17:43:00,74.0,45.0,-100.00,South,184,3.0,8.0,36,0.00,,,0.00,505.000000,,2013-03-30 21:43:00,
2013-03-30 17:53:00,74.0,45.0,-100.00,South,184,3.0,8.0,36,0.00,,,0.00,505.000000,,2013-03-30 21:53:00,
2013-03-30 18:03:00,74.0,45.0,-100.00,South,184,3.0,8.0,36,0.00,,,0.00,505.000000,,2013-03-30 22:03:00,
2013-03-30 18:33:00,70.0,44.0,-100.00,NE,47,2.0,10.0,39,0.00,,,0.00,223.000000,,2013-03-30 22:33:00,
2013-03-30 18:44:00,70.0,44.0,-100.00,NE,47,2.0,10.0,39,0.00,,,0.00,223.000000,,2013-03-30 22:44:00,
2013-03-30 18:54:00,70.0,44.0,-100.00,NE,47,2.0,10.0,39,0.00,,,0.00,223.000000,,2013-03-30 22:54:00,
2013-03-30 19:03:00,70.0,44.0,-100.00,NE,47,2.0,10.0,39,0.00,,,0.00,223.000000,,2013-03-30 23:03:00,
2013-03-30 19:33:00,64.0,48.0,-100.00,SSE,164,4.0,7.0,57,0.00,,,0.00,41.000000,,2013-03-30 23:33:00,
2013-03-30 19:43:00,64.0,48.0,-100.00,SSE,164,4.0,7.0,57,0.00,,,0.00,41.000000,,2013-03-30 23:43:00,
2013-03-30 19:53:00,64.0,48.0,-100.00,SSE,164,4.0,7.0,57,0.00,,,0.00,41.000000,,2013-03-30 23:53:00,
2013-03-30 20:03:00,64.0,48.0,-100.00,SSE,164,4.0,7.0,57,0.00,,,0.00,41.000000,,2013-03-31 00:03:00,
2013-03-30 20:33:00,60.0,49.0,-100.00,SSW,198,4.0,6.0,67,0.00,,,0.00,14.000000,,2013-03-31 00:33:00,
2013-03-30 20:43:00,60.0,49.0,-100.00,SSW,198,4.0,6.0,67,0.00,,,0.00,14.000000,,2013-03-31 00:43:00,
2013-03-30 20:53:00,60.0,49.0,-100.00,SSW,198,4.0,6.0,67,0.00,,,0.00,14.000000,,2013-03-31 00:53:00,
2013-03-30 21:02:00,60.0,49.0,-100.00,SSW,198,4.0,6.0,67,0.00,,,0.00,14.000000,,2013-03-31 01:02:00,
2013-03-30 21:32:00,55.0,49.0,-100.00,SSW,206,4.0,6.0,79,0.00,,,0.00,0.000000,,2013-03-31 01:32:00,
2013-03-30 21:43:00,55.0,49.0,-100.00,SSW,206,4.0,6.0,79,0.00,,,0.00,0.000000,,2013-03-31 01:43:00,
2013-03-30 21:53:00,55.0,49.0,-100.00,SSW,206,4.0,6.0,79,0.00,,,0.00,0.000000,,2013-03-31 01:53:00,
2013-03-30 22:02:00,55.0,49.0,-100.00,SSW,206,4.0,6.0,79,0.00,,,0.00,0.000000,,2013-03-31 02:02:00,
2013-03-30 22:33:00,53.0,49.0,-100.00,SW,227,5.0,7.0,85,0.00,,,0.00,0.000000,,2013-03-31 02:33:00,
2013-03-30 22:43:00,53.0,49.0,-100.00,SW,227,5.0,7.0,85,0.00,,,0.00,0.000000,,2013-03-31 02:43:00,
2013-03-30 22:53:00,53.0,49.0,-100.00,SW,227,5.0,7.0,85,0.00,,,0.00,0.000000,,2013-03-31 02:53:00,
2013-03-30 23:02:00,53.0,49.0,-100.00,SW,227,5.0,7.0,85,0.00,,,0.00,0.000000,,2013-03-31 03:02:00,
2013-03-30 23:33:00,53.0,48.0,-100.00,SW,217,5.0,8.0,83,0.00,,,0.00,0.000000,,2013-03-31 03:33:00,
2013-03-30 23:44:00,53.0,48.0,-100.00,SW,217,5.0,8.0,83,0.00,,,0.00,0.000000,,2013-03-31 03:44:00,
2013-03-30 23:54:00,53.0,48.0,-100.00,SW,217,5.0,8.0,83,0.00,,,0.00,0.000000,,2013-03-31 03:54:00,